createdAt,value
2019-04-30T00:00:57.973Z,13.32
2019-04-30T00:03:29.008Z,13.30
2019-04-30T00:05:57.528Z,13.15
2019-04-30T00:08:25.684Z,14.03
2019-04-30T00:10:52.966Z,13.32
2019-04-30T00:13:21.010Z,13.83
2019-04-30T00:15:52.780Z,13.28
2019-04-30T00:18:18.632Z,13.75
2019-04-30T00:20:47.028Z,14.45
2019-04-30T00:23:17.580Z,13.40
2019-04-30T00:25:42.557Z,13.20
2019-04-30T00:28:09.266Z,13.80
2019-04-30T00:30:39.385Z,13.53
2019-04-30T00:33:05.816Z,13.98
2019-04-30T00:35:32.719Z,14.07
2019-04-30T00:38:00.251Z,13.85
2019-04-30T00:40:30.116Z,14.47
2019-04-30T00:42:59.897Z,13.58
2019-04-30T00:45:25.188Z,13.40
2019-04-30T00:47:52.059Z,13.72
2019-04-30T00:50:18.903Z,13.30
2019-04-30T00:52:45.800Z,13.53
2019-04-30T00:55:14.903Z,13.75
2019-04-30T00:57:47.436Z,13.50
2019-04-30T01:00:12.100Z,14.50
2019-04-30T01:02:46.662Z,13.45
2019-04-30T01:05:20.946Z,13.65
2019-04-30T01:07:51.600Z,14.03
2019-04-30T01:10:19.558Z,13.03
2019-04-30T01:12:49.613Z,13.80
2019-04-30T01:15:14.660Z,14.63
2019-04-30T01:17:45.404Z,14.60
2019-04-30T01:20:11.442Z,14.55
2019-04-30T01:22:38.856Z,14.43
2019-04-30T01:25:09.059Z,13.58
2019-04-30T01:27:39.530Z,13.10
2019-04-30T01:30:13.401Z,13.80
2019-04-30T01:32:39.483Z,14.00
2019-04-30T01:35:06.325Z,14.40
2019-04-30T01:37:33.073Z,14.38
2019-04-30T01:40:03.071Z,14.60
2019-04-30T01:42:28.814Z,14.80
2019-04-30T01:44:55.503Z,14.83
2019-04-30T01:47:27.662Z,14.78
2019-04-30T01:49:50.834Z,14.73
2019-04-30T01:52:19.307Z,14.93
2019-04-30T01:54:46.050Z,14.33
2019-04-30T01:57:20.127Z,14.68
2019-04-30T02:00:03.804Z,15.40
2019-04-30T02:02:35.167Z,15.10
2019-04-30T02:05:02.071Z,14.80
2019-04-30T02:07:28.905Z,14.65
2019-04-30T02:09:55.816Z,15.13
2019-04-30T02:12:22.512Z,15.25
2019-04-30T02:14:49.797Z,15.63
2019-04-30T02:17:19.244Z,15.83
2019-04-30T02:19:54.765Z,15.18
2019-04-30T02:22:14.706Z,14.45
2019-04-30T02:24:41.471Z,14.70
2019-04-30T02:27:09.136Z,16.00
2019-04-30T02:29:36.020Z,15.95
2019-04-30T02:32:02.895Z,16.50
2019-04-30T02:34:49.621Z,15.70
2019-04-30T02:37:17.104Z,15.45
2019-04-30T02:39:43.872Z,15.98
2019-04-30T02:42:13.209Z,15.40
2019-04-30T02:44:42.256Z,15.28
2019-04-30T02:47:11.064Z,16.62
2019-04-30T02:49:39.838Z,16.97
2019-04-30T02:52:09.215Z,15.50
2019-04-30T02:54:39.459Z,15.78
2019-04-30T02:57:11.693Z,14.63
2019-04-30T02:59:40.807Z,15.30
2019-04-30T03:02:11.508Z,14.78
2019-04-30T03:04:36.046Z,15.83
2019-04-30T03:07:02.755Z,14.90
2019-04-30T03:09:31.649Z,15.15
2019-04-30T03:12:00.233Z,15.83
2019-04-30T03:14:26.887Z,16.05
2019-04-30T03:17:04.138Z,16.60
2019-04-30T03:19:40.293Z,16.20
2019-04-30T03:22:10.170Z,15.60
2019-04-30T03:24:39.782Z,14.93
2019-04-30T03:27:05.599Z,15.10
2019-04-30T03:29:32.454Z,16.00
2019-04-30T03:32:02.957Z,15.50
2019-04-30T03:34:31.869Z,15.85
2019-04-30T03:36:56.232Z,15.60
2019-04-30T03:39:23.421Z,15.45
2019-04-30T03:41:50.416Z,15.72
2019-04-30T03:44:24.675Z,16.15
2019-04-30T03:46:45.915Z,15.40
2019-04-30T03:49:13.296Z,14.28
2019-04-30T03:51:40.610Z,16.70
2019-04-30T03:54:10.109Z,15.58
2019-04-30T03:56:36.199Z,15.48
2019-04-30T03:59:02.978Z,15.45
2019-04-30T04:01:43.877Z,15.28
2019-04-30T04:04:12.392Z,15.40
2019-04-30T04:06:49.534Z,16.25
2019-04-30T04:09:33.409Z,16.02
2019-04-30T04:12:20.481Z,17.23
2019-04-30T04:14:47.274Z,17.48
2019-04-30T04:17:14.005Z,16.97
2019-04-30T04:19:40.917Z,17.55
2019-04-30T04:22:09.968Z,17.23
2019-04-30T04:24:36.124Z,17.65
2019-04-30T04:27:02.868Z,17.20
2019-04-30T04:29:29.954Z,17.20
2019-04-30T04:31:56.777Z,18.07
2019-04-30T04:34:23.484Z,17.87
2019-04-30T04:36:50.796Z,18.75
2019-04-30T04:39:20.205Z,16.70
2019-04-30T04:41:46.275Z,18.30
2019-04-30T04:44:13.272Z,16.70
2019-04-30T04:46:43.805Z,16.90
2019-04-30T04:49:10.588Z,17.30
2019-04-30T04:51:39.423Z,16.32
2019-04-30T04:54:10.315Z,15.58
2019-04-30T04:56:36.885Z,16.77
2019-04-30T04:59:03.560Z,17.35
2019-04-30T05:01:30.309Z,16.97
2019-04-30T05:03:58.957Z,16.85
2019-04-30T05:06:25.558Z,16.75
2019-04-30T05:08:52.305Z,17.80
2019-04-30T05:11:19.279Z,17.80
2019-04-30T05:13:46.113Z,17.67
2019-04-30T05:16:12.823Z,17.17
2019-04-30T05:18:39.624Z,18.40
2019-04-30T05:21:06.420Z,17.17
2019-04-30T05:23:33.090Z,16.37
2019-04-30T05:25:59.865Z,16.27
2019-04-30T05:28:26.569Z,16.45
2019-04-30T05:30:53.272Z,16.75
2019-04-30T05:33:20.045Z,16.42
2019-04-30T05:35:46.753Z,16.97
2019-04-30T05:38:13.510Z,16.40
2019-04-30T05:40:42.589Z,16.93
2019-04-30T05:43:11.086Z,16.90
2019-04-30T05:45:38.927Z,17.80
2019-04-30T05:48:08.726Z,16.40
2019-04-30T05:50:35.709Z,17.45
2019-04-30T05:53:02.414Z,16.35
2019-04-30T05:55:29.446Z,16.32
2019-04-30T05:57:56.657Z,16.67
2019-04-30T06:00:23.504Z,16.17
2019-04-30T06:02:50.288Z,16.97
2019-04-30T06:05:18.674Z,16.07
2019-04-30T06:07:45.600Z,16.70
2019-04-30T06:10:14.285Z,16.20
2019-04-30T06:12:42.798Z,16.02
2019-04-30T06:15:11.815Z,15.75
2019-04-30T06:17:40.769Z,16.73
2019-04-30T06:20:17.836Z,16.17
2019-04-30T06:22:38.490Z,15.05
2019-04-30T06:25:05.392Z,14.30
2019-04-30T06:27:32.292Z,15.05
2019-04-30T06:29:59.042Z,15.03
2019-04-30T06:32:25.753Z,14.15
2019-04-30T06:34:52.510Z,15.63
2019-04-30T06:37:19.611Z,15.45
2019-04-30T06:39:46.410Z,15.05
2019-04-30T06:42:13.241Z,15.13
2019-04-30T06:44:41.903Z,16.55
2019-04-30T06:47:09.119Z,16.80
2019-04-30T06:49:36.707Z,14.40
2019-04-30T06:52:03.413Z,16.25
2019-04-30T06:54:30.144Z,14.18
2019-04-30T06:56:56.847Z,14.33
2019-04-30T06:59:23.605Z,13.80
2019-04-30T07:01:50.373Z,15.35
2019-04-30T07:04:19.137Z,14.15
2019-04-30T07:06:45.557Z,13.80
2019-04-30T07:09:14.130Z,13.55
2019-04-30T07:11:42.661Z,13.00
2019-04-30T07:14:09.627Z,12.85
2019-04-30T07:16:36.689Z,13.58
2019-04-30T07:19:03.622Z,12.58
2019-04-30T07:21:31.616Z,13.05
2019-04-30T07:23:59.717Z,13.40
2019-04-30T07:26:28.747Z,13.58
2019-04-30T07:28:55.628Z,13.40
2019-04-30T07:31:22.522Z,14.65
2019-04-30T07:33:53.432Z,13.65
2019-04-30T07:36:19.462Z,13.83
2019-04-30T07:38:53.716Z,12.45
2019-04-30T07:41:14.797Z,13.40
2019-04-30T07:43:41.565Z,11.97
2019-04-30T07:46:09.391Z,12.18
2019-04-30T07:48:36.577Z,12.23
2019-04-30T07:51:03.504Z,12.63
2019-04-30T07:53:30.933Z,11.83
2019-04-30T07:55:58.848Z,12.40
2019-04-30T07:58:25.777Z,12.55
2019-04-30T08:00:56.246Z,11.63
2019-04-30T08:03:22.979Z,12.93
2019-04-30T08:05:51.966Z,12.00
2019-04-30T08:08:25.022Z,12.00
2019-04-30T08:10:50.780Z,12.00
2019-04-30T08:13:16.435Z,12.20
2019-04-30T08:15:44.642Z,11.68
2019-04-30T08:18:11.343Z,11.53
2019-04-30T08:20:39.286Z,11.57
2019-04-30T08:23:15.690Z,11.43
2019-04-30T08:25:34.625Z,10.93
2019-04-30T08:28:01.392Z,11.30
2019-04-30T08:30:30.046Z,11.12
2019-04-30T08:32:56.653Z,11.38
2019-04-30T08:35:23.407Z,10.88
2019-04-30T08:37:50.117Z,9.65
2019-04-30T08:40:18.877Z,10.10
2019-04-30T08:42:45.434Z,9.60
2019-04-30T08:45:12.642Z,10.15
2019-04-30T08:47:39.459Z,9.90
2019-04-30T08:50:09.391Z,9.30
2019-04-30T08:52:35.673Z,10.18
2019-04-30T08:55:13.511Z,8.83
2019-04-30T08:57:33.344Z,9.43
2019-04-30T09:00:00.089Z,8.60
2019-04-30T09:02:28.874Z,9.20
2019-04-30T09:05:00.204Z,9.20
2019-04-30T09:07:25.667Z,9.38
2019-04-30T09:09:52.449Z,8.48
2019-04-30T09:12:19.561Z,8.70
2019-04-30T09:14:46.445Z,8.35
2019-04-30T09:17:13.202Z,8.80
2019-04-30T09:19:39.958Z,9.23
2019-04-30T09:22:14.442Z,8.38
2019-04-30T09:24:35.264Z,8.70
2019-04-30T09:27:01.971Z,8.85
2019-04-30T09:29:29.356Z,9.00
2019-04-30T09:31:56.239Z,8.40
2019-04-30T09:34:22.963Z,8.43
2019-04-30T09:36:49.702Z,9.23
2019-04-30T09:39:16.446Z,8.43
2019-04-30T09:41:43.156Z,7.92
2019-04-30T09:44:10.068Z,8.68
2019-04-30T09:46:38.848Z,7.00
2019-04-30T09:49:05.352Z,8.05
2019-04-30T09:51:32.583Z,9.40
2019-04-30T09:54:02.871Z,7.45
2019-04-30T09:56:29.421Z,6.78
2019-04-30T09:58:56.338Z,6.65
2019-04-30T10:01:23.039Z,6.03
2019-04-30T10:03:50.595Z,6.28
2019-04-30T10:06:18.954Z,6.50
2019-04-30T10:08:48.617Z,5.42
2019-04-30T10:11:21.852Z,5.95
2019-04-30T10:13:48.553Z,5.75
2019-04-30T10:16:19.626Z,7.30
2019-04-30T10:18:46.369Z,6.70
2019-04-30T10:21:13.114Z,7.20
2019-04-30T10:23:39.856Z,6.65
2019-04-30T10:26:06.633Z,6.53
2019-04-30T10:28:36.959Z,6.15
2019-04-30T10:31:03.810Z,6.62
2019-04-30T10:33:30.580Z,5.90
2019-04-30T10:35:57.293Z,6.05
2019-04-30T10:38:23.992Z,6.30
2019-04-30T10:40:50.846Z,6.08
2019-04-30T10:43:19.666Z,6.35
2019-04-30T10:45:46.056Z,7.00
2019-04-30T10:48:13.039Z,6.00
2019-04-30T10:50:40.917Z,6.03
2019-04-30T10:53:09.153Z,6.72
2019-04-30T10:55:38.393Z,6.28
2019-04-30T10:58:04.836Z,6.05
2019-04-30T11:00:38.890Z,5.90
2019-04-30T11:03:17.236Z,5.70
2019-04-30T11:05:35.493Z,6.08
2019-04-30T11:08:02.280Z,6.08
2019-04-30T11:10:29.169Z,5.33
2019-04-30T11:12:55.890Z,5.33
2019-04-30T11:15:22.665Z,5.53
2019-04-30T11:17:49.781Z,6.70
2019-04-30T11:20:16.791Z,4.65
2019-04-30T11:22:44.008Z,5.42
2019-04-30T11:25:11.117Z,4.92
2019-04-30T11:27:40.189Z,4.40
2019-04-30T11:30:19.821Z,5.40
2019-04-30T11:32:36.035Z,5.65
2019-04-30T11:35:05.484Z,5.17
2019-04-30T11:37:32.256Z,4.50
2019-04-30T11:39:58.972Z,4.15
2019-04-30T11:42:25.679Z,4.60
2019-04-30T11:44:52.426Z,4.70
2019-04-30T11:47:22.137Z,4.72
2019-04-30T11:49:48.963Z,5.10
2019-04-30T11:52:15.668Z,4.28
2019-04-30T11:54:49.099Z,4.78
2019-04-30T11:57:10.945Z,4.35
2019-04-30T11:59:39.458Z,4.15
2019-04-30T12:02:08.144Z,4.35
2019-04-30T12:04:34.909Z,4.47
2019-04-30T12:07:03.421Z,4.58
2019-04-30T12:09:48.700Z,4.20
2019-04-30T12:12:15.457Z,3.92
2019-04-30T12:14:42.169Z,4.15
2019-04-30T12:17:08.955Z,4.15
2019-04-30T12:19:35.761Z,4.10
2019-04-30T12:22:02.469Z,4.83
2019-04-30T12:24:30.425Z,4.62
2019-04-30T12:26:57.282Z,5.12
2019-04-30T12:29:23.998Z,4.67
2019-04-30T12:31:50.782Z,3.85
2019-04-30T12:34:17.507Z,3.65
2019-04-30T12:36:44.183Z,3.17
2019-04-30T12:39:11.020Z,3.10
2019-04-30T12:41:38.991Z,3.42
2019-04-30T12:44:06.238Z,3.62
2019-04-30T12:46:32.969Z,4.30
2019-04-30T12:49:04.477Z,4.30
2019-04-30T12:51:45.054Z,4.22
2019-04-30T12:54:05.878Z,4.15
2019-04-30T12:56:39.944Z,4.25
2019-04-30T12:59:06.708Z,5.30
2019-04-30T13:01:34.181Z,4.22
2019-04-30T13:04:01.534Z,4.62
2019-04-30T13:06:28.734Z,4.78
2019-04-30T13:08:56.462Z,5.05
2019-04-30T13:11:23.825Z,4.80
2019-04-30T13:13:51.743Z,4.92
2019-04-30T13:16:19.374Z,5.12
2019-04-30T13:18:46.362Z,5.05
2019-04-30T13:21:13.063Z,4.70
2019-04-30T13:23:39.841Z,4.78
2019-04-30T13:26:08.796Z,4.97
2019-04-30T13:28:51.793Z,5.03
2019-04-30T13:31:19.353Z,5.33
2019-04-30T13:34:00.968Z,5.87
2019-04-30T13:36:25.407Z,5.00
2019-04-30T13:38:56.946Z,4.95
2019-04-30T13:41:37.560Z,4.97
2019-04-30T13:44:04.300Z,5.00
2019-04-30T13:46:31.016Z,4.40
2019-04-30T13:48:57.821Z,4.65
2019-04-30T13:51:24.525Z,4.45
2019-04-30T13:53:51.225Z,5.00
2019-04-30T13:56:20.027Z,4.53
2019-04-30T13:58:46.998Z,4.85
2019-04-30T14:01:13.701Z,5.05
2019-04-30T14:03:48.931Z,5.00
2019-04-30T14:06:19.022Z,5.10
2019-04-30T14:08:48.810Z,5.03
2019-04-30T14:11:15.753Z,4.83
2019-04-30T14:13:42.470Z,4.65
2019-04-30T14:16:09.253Z,4.58
2019-04-30T14:18:36.020Z,4.87
2019-04-30T14:21:02.798Z,5.12
2019-04-30T14:23:29.560Z,5.37
2019-04-30T14:25:57.025Z,4.85
2019-04-30T14:28:23.828Z,4.58
2019-04-30T14:30:50.637Z,4.67
2019-04-30T14:33:24.162Z,4.47
2019-04-30T14:35:45.857Z,4.35
2019-04-30T14:38:12.689Z,4.60
2019-04-30T14:40:40.452Z,4.60
2019-04-30T14:43:10.108Z,4.40
2019-04-30T14:45:56.094Z,4.25
2019-04-30T14:48:35.053Z,4.70
2019-04-30T14:51:02.353Z,4.75
2019-04-30T14:53:38.698Z,4.55
2019-04-30T14:56:22.173Z,4.85
2019-04-30T14:58:50.685Z,4.90
2019-04-30T15:01:22.011Z,4.75
2019-04-30T15:06:16.446Z,4.50
2019-04-30T15:08:43.148Z,4.35
2019-04-30T15:11:10.222Z,4.40
2019-04-30T15:13:36.911Z,4.17
2019-04-30T15:16:03.623Z,4.58
2019-04-30T15:18:30.397Z,4.45
2019-04-30T15:20:57.164Z,4.20
2019-04-30T15:23:31.264Z,4.72
2019-04-30T15:25:58.646Z,4.45
2019-04-30T15:28:32.427Z,4.67
2019-04-30T15:30:54.065Z,4.17
2019-04-30T15:33:34.861Z,4.30
2019-04-30T15:36:04.958Z,4.42
2019-04-30T15:38:49.923Z,4.37
2019-04-30T15:41:17.012Z,4.15
2019-04-30T15:43:43.712Z,4.70
2019-04-30T15:46:10.488Z,4.60
2019-04-30T15:48:37.188Z,3.92
2019-04-30T15:51:04.033Z,4.08
2019-04-30T15:53:30.799Z,3.42
2019-04-30T15:55:58.709Z,3.70
2019-04-30T15:58:30.322Z,3.30
2019-04-30T16:00:56.794Z,3.47
2019-04-30T16:03:31.605Z,3.55
2019-04-30T16:05:58.441Z,3.85
2019-04-30T16:08:29.882Z,3.50
2019-04-30T16:13:46.799Z,3.70
2019-04-30T16:16:13.505Z,3.58
2019-04-30T16:18:49.957Z,3.60
2019-04-30T16:21:16.660Z,3.83
2019-04-30T16:23:43.369Z,3.30
2019-04-30T16:26:10.171Z,4.03
2019-04-30T16:28:36.877Z,3.83
2019-04-30T16:31:03.654Z,3.70
2019-04-30T16:33:30.427Z,3.52
2019-04-30T16:35:58.930Z,3.65
2019-04-30T16:38:25.642Z,3.75
2019-04-30T16:40:52.476Z,3.50
2019-04-30T16:43:20.343Z,3.75
2019-04-30T16:45:49.218Z,3.95
2019-04-30T16:48:15.754Z,3.95
2019-04-30T16:50:42.549Z,4.25
2019-04-30T16:53:09.243Z,3.83
2019-04-30T16:55:36.020Z,3.62
2019-04-30T16:58:02.720Z,4.12
2019-04-30T17:00:30.889Z,4.22
2019-04-30T17:02:59.584Z,3.55
2019-04-30T17:05:40.169Z,3.95
2019-04-30T17:08:19.259Z,3.50
2019-04-30T17:10:51.024Z,4.10
2019-04-30T17:13:25.196Z,4.10
2019-04-30T17:15:53.659Z,3.98
2019-04-30T17:18:20.370Z,4.58
2019-04-30T17:20:49.080Z,4.53
2019-04-30T17:23:15.754Z,4.03
2019-04-30T17:25:42.449Z,4.55
2019-04-30T17:28:09.332Z,4.70
2019-04-30T17:30:36.370Z,3.83
2019-04-30T17:33:03.122Z,3.98
2019-04-30T17:35:29.869Z,4.12
2019-04-30T17:37:56.592Z,4.42
2019-04-30T17:40:23.386Z,4.42
2019-04-30T17:42:50.259Z,4.95
2019-04-30T17:45:19.377Z,4.50
2019-04-30T17:47:45.962Z,4.47
2019-04-30T17:50:12.919Z,4.55
2019-04-30T17:52:39.628Z,5.75
2019-04-30T17:55:06.620Z,15.32
2019-04-30T17:57:34.664Z,9.90
2019-04-30T18:00:01.981Z,5.00
2019-04-30T18:02:30.557Z,4.62
2019-04-30T18:04:57.267Z,5.05
2019-04-30T18:07:23.964Z,4.80
2019-04-30T18:09:50.747Z,4.62
2019-04-30T18:12:19.464Z,4.80
2019-04-30T18:14:46.882Z,4.92
2019-04-30T18:17:13.662Z,5.25
2019-04-30T18:19:42.231Z,4.62
2019-04-30T18:22:19.810Z,4.92
2019-04-30T18:24:59.178Z,5.00
2019-04-30T18:27:42.409Z,4.92
2019-04-30T18:29:58.762Z,4.47
2019-04-30T18:32:29.490Z,4.95
2019-04-30T18:34:56.088Z,4.73
2019-04-30T18:37:22.769Z,4.83
2019-04-30T18:39:49.689Z,5.60
2019-04-30T18:42:16.388Z,4.62
2019-04-30T18:44:43.088Z,5.50
2019-04-30T18:47:09.842Z,5.50
2019-04-30T18:49:36.646Z,5.70
2019-04-30T18:52:03.432Z,5.15
2019-04-30T18:54:30.171Z,6.20
2019-04-30T18:56:58.936Z,5.58
2019-04-30T18:59:25.778Z,5.85
2019-04-30T19:01:52.498Z,6.53
2019-04-30T19:04:19.252Z,5.80
2019-04-30T19:06:46.169Z,6.05
2019-04-30T19:09:30.167Z,5.97
2019-04-30T19:12:04.654Z,6.50
2019-04-30T19:14:36.050Z,6.33
2019-04-30T19:17:10.427Z,7.05
2019-04-30T19:19:40.317Z,6.62
2019-04-30T19:22:09.070Z,6.92
2019-04-30T19:24:35.764Z,7.00
2019-04-30T19:27:02.475Z,7.62
2019-04-30T19:29:29.246Z,6.10
2019-04-30T19:31:56.067Z,6.90
2019-04-30T19:34:22.793Z,6.50
2019-04-30T19:36:49.538Z,6.70
2019-04-30T19:39:19.425Z,6.87
2019-04-30T19:41:46.308Z,7.17
2019-04-30T19:44:13.269Z,7.28
2019-04-30T19:46:40.053Z,6.58
2019-04-30T19:49:07.072Z,6.12
2019-04-30T19:51:34.101Z,6.20
2019-04-30T19:54:00.781Z,5.92
2019-04-30T19:56:29.414Z,6.45
2019-04-30T19:59:02.907Z,6.12
2019-04-30T20:01:24.805Z,6.10
2019-04-30T20:03:51.518Z,5.95
2019-04-30T20:06:19.100Z,5.85
2019-04-30T20:08:46.003Z,5.65
2019-04-30T20:11:12.705Z,5.30
2019-04-30T20:13:40.468Z,5.92
2019-04-30T20:16:09.478Z,6.35
2019-04-30T20:18:35.901Z,7.90
2019-04-30T20:21:04.583Z,7.30
2019-04-30T20:23:31.264Z,6.78
2019-04-30T20:25:58.018Z,6.90
2019-04-30T20:28:24.761Z,6.83
2019-04-30T20:30:51.476Z,7.08
2019-04-30T20:33:19.042Z,6.58
2019-04-30T20:35:45.889Z,6.42
2019-04-30T20:38:30.932Z,6.83
2019-04-30T20:41:02.805Z,8.05
2019-04-30T20:43:28.442Z,8.75
2019-04-30T20:45:55.197Z,7.42
2019-04-30T20:48:21.911Z,6.87
2019-04-30T20:50:48.657Z,7.55
2019-04-30T20:53:15.400Z,8.18
2019-04-30T20:55:42.137Z,7.62
2019-04-30T20:58:09.490Z,7.45
2019-04-30T21:00:36.610Z,7.67
2019-04-30T21:03:03.325Z,7.67
2019-04-30T21:05:30.089Z,7.87
2019-04-30T21:07:56.919Z,8.05
2019-04-30T21:10:23.710Z,8.25
2019-04-30T21:12:50.420Z,8.15
2019-04-30T21:15:17.194Z,7.87
2019-04-30T21:17:43.906Z,8.25
2019-04-30T21:20:10.925Z,8.53
2019-04-30T21:22:38.840Z,8.93
2019-04-30T21:25:06.269Z,8.33
2019-04-30T21:27:33.045Z,9.33
2019-04-30T21:29:59.785Z,8.95
2019-04-30T21:32:45.001Z,8.35
2019-04-30T21:35:16.477Z,9.40
2019-04-30T21:37:43.185Z,9.83
2019-04-30T21:40:10.165Z,9.20
2019-04-30T21:42:36.869Z,8.93
2019-04-30T21:45:04.276Z,9.18
2019-04-30T21:47:30.999Z,9.08
2019-04-30T21:49:57.836Z,9.18
2019-04-30T21:52:24.540Z,9.78
2019-04-30T21:54:51.249Z,10.03
2019-04-30T21:57:18.008Z,10.15
2019-04-30T21:59:44.740Z,10.25
2019-04-30T22:02:11.434Z,9.88
2019-04-30T22:04:38.227Z,10.32
2019-04-30T22:07:04.929Z,10.30
2019-04-30T22:09:31.714Z,10.40
2019-04-30T22:11:59.216Z,10.40
2019-04-30T22:14:25.993Z,11.40
2019-04-30T22:16:52.702Z,10.68
2019-04-30T22:19:19.563Z,11.18
2019-04-30T22:21:46.230Z,10.68
2019-04-30T22:24:12.925Z,10.45
2019-04-30T22:26:39.622Z,11.18
2019-04-30T22:29:06.416Z,12.10
2019-04-30T22:31:33.120Z,10.60
2019-04-30T22:33:59.856Z,11.88
2019-04-30T22:36:38.767Z,11.65
2019-04-30T22:39:13.630Z,11.68
2019-04-30T22:41:40.401Z,11.50
2019-04-30T22:44:07.099Z,12.15
2019-04-30T22:46:33.804Z,11.93
2019-04-30T22:49:00.610Z,11.60
2019-04-30T22:51:27.264Z,12.75
2019-04-30T22:53:53.933Z,12.18
2019-04-30T22:56:20.875Z,13.95
2019-04-30T22:58:47.572Z,14.83
2019-04-30T23:01:32.522Z,14.65
2019-04-30T23:04:04.060Z,14.00
2019-04-30T23:06:30.774Z,17.17
2019-04-30T23:08:57.582Z,16.85
2019-04-30T23:11:24.236Z,20.65
2019-04-30T23:13:50.901Z,20.88
2019-04-30T23:16:17.668Z,26.45
2019-04-30T23:18:44.381Z,25.97
2019-04-30T23:21:11.089Z,26.62
2019-04-30T23:23:37.857Z,27.80
2019-04-30T23:26:04.547Z,30.35
2019-04-30T23:28:31.253Z,35.33
2019-04-30T23:30:58.055Z,31.60
2019-04-30T23:33:24.759Z,34.55
2019-04-30T23:35:51.497Z,34.95
2019-04-30T23:38:18.268Z,34.05
2019-04-30T23:40:51.295Z,34.58
2019-04-30T23:43:19.003Z,33.35
2019-04-30T23:45:45.772Z,33.48
2019-04-30T23:48:12.678Z,33.58
2019-04-30T23:50:39.492Z,36.33
2019-04-30T23:53:06.256Z,31.40
2019-04-30T23:55:32.967Z,33.42
2019-04-30T23:57:59.665Z,31.40
